createdAt,value
2022-11-20T00:00:55.011Z,2.50
2022-11-20T00:03:22.457Z,2.50
2022-11-20T00:05:49.231Z,2.40
2022-11-20T00:08:15.978Z,2.40
2022-11-20T00:10:42.757Z,2.40
2022-11-20T00:13:09.656Z,2.40
2022-11-20T00:15:36.445Z,2.40
2022-11-20T00:18:03.201Z,2.40
2022-11-20T00:20:30.231Z,2.40
2022-11-20T00:22:57.111Z,2.40
2022-11-20T00:25:23.855Z,2.40
2022-11-20T00:27:51.224Z,2.40
2022-11-20T00:30:18.158Z,2.50
2022-11-20T00:32:44.935Z,2.50
2022-11-20T00:35:11.791Z,2.50
2022-11-20T00:37:38.478Z,2.50
2022-11-20T00:40:05.765Z,2.50
2022-11-20T00:42:33.892Z,2.50
2022-11-20T00:45:00.642Z,2.30
2022-11-20T00:47:27.439Z,2.30
2022-11-20T00:49:54.351Z,2.20
2022-11-20T00:52:21.115Z,2.20
2022-11-20T00:54:47.937Z,2.20
2022-11-20T00:57:14.709Z,2.30
2022-11-20T00:59:41.612Z,2.30
2022-11-20T01:02:08.581Z,2.30
2022-11-20T01:04:35.526Z,2.30
2022-11-20T01:07:02.369Z,2.30
2022-11-20T01:09:29.123Z,2.30
2022-11-20T01:11:57.127Z,2.30
2022-11-20T01:14:23.934Z,2.30
2022-11-20T01:16:52.218Z,2.20
2022-11-20T01:19:24.662Z,2.30
2022-11-20T01:21:54.260Z,2.30
2022-11-20T01:24:22.877Z,2.20
2022-11-20T01:26:51.309Z,2.20
2022-11-20T01:29:21.786Z,2.40
2022-11-20T01:31:48.751Z,2.50
2022-11-20T01:34:18.932Z,2.40
2022-11-20T01:36:46.670Z,2.50
2022-11-20T01:39:33.073Z,2.50
2022-11-20T01:42:18.883Z,2.50
2022-11-20T01:44:56.868Z,2.60
2022-11-20T01:47:33.170Z,2.50
2022-11-20T01:50:03.753Z,2.50
2022-11-20T01:52:49.108Z,2.50
2022-11-20T01:55:24.890Z,2.60
2022-11-20T01:57:52.498Z,2.60
2022-11-20T02:00:20.945Z,2.60
2022-11-20T02:03:00.939Z,2.60
2022-11-20T02:05:40.257Z,2.60
2022-11-20T02:08:08.092Z,2.50
2022-11-20T02:10:35.690Z,2.60
2022-11-20T02:13:22.390Z,2.50
2022-11-20T02:15:50.104Z,2.40
2022-11-20T02:18:19.678Z,2.50
2022-11-20T02:20:51.086Z,2.50
2022-11-20T02:23:24.601Z,2.50
2022-11-20T02:25:52.496Z,2.60
2022-11-20T02:28:19.957Z,2.50
2022-11-20T02:30:46.750Z,2.50
2022-11-20T02:33:13.737Z,2.60
2022-11-20T02:35:41.929Z,2.60
2022-11-20T02:38:09.253Z,2.60
2022-11-20T02:40:36.055Z,2.60
2022-11-20T02:43:03.013Z,2.60
2022-11-20T02:45:29.767Z,2.50
2022-11-20T02:47:56.878Z,2.50
2022-11-20T02:50:23.791Z,2.50
2022-11-20T02:52:50.547Z,2.60
2022-11-20T02:55:17.409Z,2.50
2022-11-20T02:57:44.462Z,2.50
2022-11-20T03:00:11.531Z,2.50
2022-11-20T03:02:38.280Z,2.60
2022-11-20T03:05:05.366Z,2.60
2022-11-20T03:07:32.046Z,2.60
2022-11-20T03:09:58.745Z,2.60
2022-11-20T03:12:25.505Z,2.70
2022-11-20T03:14:53.374Z,2.60
2022-11-20T03:17:20.553Z,2.60
2022-11-20T03:19:47.352Z,2.70
2022-11-20T03:22:14.166Z,2.70
2022-11-20T03:24:40.975Z,2.70
2022-11-20T03:27:07.922Z,2.80
2022-11-20T03:29:36.314Z,2.80
2022-11-20T03:32:03.145Z,2.80
2022-11-20T03:34:29.850Z,2.80
2022-11-20T03:36:56.648Z,2.80
2022-11-20T03:39:23.745Z,2.70
2022-11-20T03:41:50.863Z,2.70
2022-11-20T03:44:17.712Z,2.70
2022-11-20T03:46:44.468Z,2.70
2022-11-20T03:49:11.194Z,2.70
2022-11-20T03:51:38.046Z,2.70
2022-11-20T03:54:08.024Z,2.80
2022-11-20T03:56:37.391Z,2.70
2022-11-20T03:59:04.899Z,2.60
2022-11-20T04:01:34.401Z,2.60
2022-11-20T04:04:01.747Z,2.50
2022-11-20T04:06:29.951Z,2.50
2022-11-20T04:08:58.692Z,2.50
2022-11-20T04:11:31.272Z,2.60
2022-11-20T04:14:01.363Z,2.60
2022-11-20T04:16:30.891Z,2.60
2022-11-20T04:19:00.194Z,2.70
2022-11-20T04:21:27.475Z,2.60
2022-11-20T04:23:55.463Z,2.60
2022-11-20T04:26:24.253Z,2.60
2022-11-20T04:28:51.373Z,2.50
2022-11-20T04:31:19.646Z,2.50
2022-11-20T04:33:46.760Z,2.40
2022-11-20T04:36:17.901Z,2.50
2022-11-20T04:38:45.428Z,2.40
2022-11-20T04:41:17.625Z,2.40
2022-11-20T04:43:49.565Z,2.40
2022-11-20T04:46:17.792Z,2.50
2022-11-20T04:48:44.867Z,2.40
2022-11-20T04:51:11.536Z,2.40
2022-11-20T04:53:38.345Z,2.40
2022-11-20T04:56:07.298Z,2.40
2022-11-20T04:58:35.172Z,2.40
2022-11-20T05:01:07.289Z,2.50
2022-11-20T05:03:38.467Z,2.60
2022-11-20T05:06:08.732Z,2.60
2022-11-20T05:08:35.647Z,2.70
2022-11-20T05:11:08.393Z,2.70
2022-11-20T05:13:35.760Z,2.60
2022-11-20T05:16:09.326Z,2.70
2022-11-20T05:18:36.739Z,2.70
2022-11-20T05:21:04.239Z,2.70
2022-11-20T05:23:32.265Z,2.70
2022-11-20T05:25:59.800Z,2.80
2022-11-20T05:28:28.555Z,2.70
2022-11-20T05:30:55.325Z,2.80
2022-11-20T05:33:22.393Z,2.80
2022-11-20T05:35:49.478Z,2.80
2022-11-20T05:38:16.539Z,2.80
2022-11-20T05:40:43.396Z,2.80
2022-11-20T05:43:10.141Z,2.80
2022-11-20T05:45:36.886Z,2.80
2022-11-20T05:48:04.160Z,2.90
2022-11-20T05:50:31.293Z,3.00
2022-11-20T05:53:01.594Z,2.90
2022-11-20T05:55:28.932Z,2.90
2022-11-20T05:57:56.233Z,2.80
2022-11-20T06:00:23.275Z,2.90
2022-11-20T06:02:50.343Z,3.00
2022-11-20T06:05:17.103Z,3.00
2022-11-20T06:07:43.916Z,3.00
2022-11-20T06:10:11.557Z,3.00
2022-11-20T06:12:38.429Z,3.00
2022-11-20T06:15:06.621Z,3.00
2022-11-20T06:17:33.447Z,3.10
2022-11-20T06:20:00.176Z,3.10
2022-11-20T06:22:27.006Z,3.00
2022-11-20T06:24:53.807Z,3.10
2022-11-20T06:27:20.504Z,3.10
2022-11-20T06:29:47.238Z,3.10
2022-11-20T06:32:13.961Z,3.10
2022-11-20T06:34:40.748Z,3.10
2022-11-20T06:37:07.510Z,3.00
2022-11-20T06:39:34.243Z,3.00
2022-11-20T06:42:01.037Z,3.00
2022-11-20T06:44:27.830Z,3.00
2022-11-20T06:46:54.612Z,3.00
2022-11-20T06:49:21.781Z,3.00
2022-11-20T06:51:48.711Z,3.00
2022-11-20T06:54:15.540Z,3.00
2022-11-20T06:56:42.468Z,3.00
2022-11-20T06:59:09.202Z,3.00
2022-11-20T07:01:36.074Z,2.90
2022-11-20T07:04:04.134Z,2.90
2022-11-20T07:06:31.282Z,2.90
2022-11-20T07:08:58.464Z,3.00
2022-11-20T07:11:25.574Z,3.00
2022-11-20T07:13:52.324Z,2.90
2022-11-20T07:16:19.149Z,2.90
2022-11-20T07:18:50.201Z,3.00
2022-11-20T07:21:18.229Z,3.00
2022-11-20T07:23:45.141Z,3.00
2022-11-20T07:26:12.322Z,2.90
2022-11-20T07:28:39.320Z,2.90
2022-11-20T07:31:07.647Z,2.90
2022-11-20T07:33:35.255Z,2.80
2022-11-20T07:36:02.986Z,2.80
2022-11-20T07:38:30.975Z,2.80
2022-11-20T07:40:58.625Z,2.80
2022-11-20T07:43:26.238Z,2.80
2022-11-20T07:45:53.197Z,2.90
2022-11-20T07:48:19.911Z,2.90
2022-11-20T07:50:46.725Z,2.90
2022-11-20T07:53:14.733Z,2.90
2022-11-20T07:55:41.569Z,3.00
2022-11-20T07:58:08.303Z,3.00
2022-11-20T08:00:35.075Z,3.00
2022-11-20T08:03:05.349Z,3.00
2022-11-20T08:05:32.362Z,3.10
2022-11-20T08:07:59.209Z,3.10
2022-11-20T08:10:26.125Z,3.20
2022-11-20T08:13:12.659Z,3.20
2022-11-20T08:15:40.650Z,3.30
2022-11-20T08:18:30.650Z,3.50
2022-11-20T08:20:58.383Z,3.60
2022-11-20T08:23:25.183Z,3.80
2022-11-20T08:25:52.455Z,3.80
2022-11-20T08:28:22.327Z,3.80
2022-11-20T08:30:51.141Z,3.90
2022-11-20T08:33:18.953Z,3.90
2022-11-20T08:35:48.536Z,4.00
2022-11-20T08:38:15.382Z,4.20
2022-11-20T08:40:42.170Z,4.30
2022-11-20T08:43:08.911Z,4.50
2022-11-20T08:45:35.801Z,4.80
2022-11-20T08:48:04.341Z,5.00
2022-11-20T08:50:33.310Z,5.10
2022-11-20T08:53:06.018Z,5.20
2022-11-20T08:55:34.800Z,5.20
2022-11-20T08:58:09.037Z,5.20
2022-11-20T09:00:44.619Z,5.30
2022-11-20T09:03:14.433Z,5.40
2022-11-20T09:05:41.687Z,5.60
2022-11-20T09:08:08.729Z,5.90
2022-11-20T09:10:35.695Z,6.20
2022-11-20T09:13:02.552Z,6.60
2022-11-20T09:15:29.758Z,6.80
2022-11-20T09:18:06.734Z,7.00
2022-11-20T09:20:33.659Z,7.00
2022-11-20T09:23:00.471Z,7.00
2022-11-20T09:25:27.377Z,6.80
2022-11-20T09:28:02.503Z,6.50
2022-11-20T09:30:33.756Z,6.30
2022-11-20T09:33:04.869Z,6.10
2022-11-20T09:35:32.510Z,6.00
2022-11-20T09:37:59.877Z,5.80
2022-11-20T09:40:30.617Z,5.90
2022-11-20T09:43:37.860Z,6.00
2022-11-20T09:46:20.616Z,6.00
2022-11-20T09:49:04.122Z,6.00
2022-11-20T09:51:52.879Z,5.90
2022-11-20T09:54:23.273Z,5.80
2022-11-20T09:57:28.675Z,5.80
2022-11-20T10:00:07.539Z,5.70
2022-11-20T10:02:43.669Z,5.60
2022-11-20T10:05:25.583Z,5.50
2022-11-20T10:08:18.401Z,5.40
2022-11-20T10:10:53.620Z,5.40
2022-11-20T10:13:36.161Z,5.30
2022-11-20T10:16:27.520Z,5.20
2022-11-20T10:19:09.509Z,5.30
2022-11-20T10:22:13.005Z,5.40
2022-11-20T10:24:59.763Z,5.40
2022-11-20T10:27:41.496Z,5.40
2022-11-20T10:30:21.190Z,5.40
2022-11-20T10:32:59.685Z,5.30
2022-11-20T10:35:37.913Z,5.30
2022-11-20T10:38:34.392Z,5.30
2022-11-20T10:41:22.111Z,5.20
2022-11-20T10:43:53.406Z,5.20
2022-11-20T10:46:23.355Z,5.10
2022-11-20T10:48:51.734Z,5.10
2022-11-20T10:51:23.502Z,5.00
2022-11-20T10:54:12.113Z,5.00
2022-11-20T10:57:07.270Z,4.90
2022-11-20T10:59:50.494Z,4.90
2022-11-20T11:02:21.834Z,4.80
2022-11-20T11:04:53.551Z,4.70
2022-11-20T11:07:36.305Z,4.70
2022-11-20T11:10:25.624Z,4.70
2022-11-20T11:12:52.478Z,4.70
2022-11-20T11:15:39.759Z,4.70
2022-11-20T11:18:09.989Z,4.70
2022-11-20T11:20:37.406Z,4.70
2022-11-20T11:23:11.441Z,4.80
2022-11-20T11:25:38.492Z,4.90
2022-11-20T11:28:22.398Z,5.00
2022-11-20T11:30:51.954Z,5.10
2022-11-20T11:33:26.345Z,5.10
2022-11-20T11:35:57.996Z,5.30
2022-11-20T11:38:30.787Z,5.20
2022-11-20T11:40:58.333Z,5.20
2022-11-20T11:43:49.842Z,5.30
2022-11-20T11:46:37.604Z,5.20
2022-11-20T11:49:10.356Z,5.10
2022-11-20T11:52:00.500Z,5.20
2022-11-20T11:54:38.706Z,5.20
2022-11-20T11:57:29.825Z,5.30
2022-11-20T12:00:16.251Z,5.40
2022-11-20T12:02:46.331Z,5.40
2022-11-20T12:05:31.698Z,5.60
2022-11-20T12:08:36.778Z,5.70
2022-11-20T12:11:34.174Z,6.00
2022-11-20T12:14:25.228Z,6.40
2022-11-20T12:16:57.914Z,7.00
2022-11-20T12:19:28.297Z,7.60
2022-11-20T12:22:09.505Z,8.30
2022-11-20T12:24:45.466Z,8.60
2022-11-20T12:27:21.395Z,8.50
2022-11-20T12:30:03.628Z,8.30
2022-11-20T12:33:09.832Z,8.00
2022-11-20T12:35:49.493Z,7.90
2022-11-20T12:38:35.003Z,7.60
2022-11-20T12:42:08.651Z,7.40
2022-11-20T12:45:12.543Z,7.10
2022-11-20T12:47:54.549Z,6.70
2022-11-20T12:50:53.232Z,6.60
2022-11-20T12:53:41.439Z,6.40
2022-11-20T12:56:26.524Z,6.30
2022-11-20T12:59:14.522Z,6.20
2022-11-20T13:02:17.683Z,6.20
2022-11-20T13:05:04.438Z,6.20
2022-11-20T13:07:33.087Z,6.40
2022-11-20T13:10:01.628Z,6.50
2022-11-20T13:12:44.180Z,6.50
2022-11-20T13:15:22.966Z,6.40
2022-11-20T13:18:00.487Z,6.40
2022-11-20T13:20:27.721Z,6.40
2022-11-20T13:22:56.553Z,6.30
2022-11-20T13:25:33.721Z,6.30
2022-11-20T13:28:04.775Z,6.20
2022-11-20T13:30:32.492Z,6.10
2022-11-20T13:33:02.115Z,6.00
2022-11-20T13:35:30.985Z,5.90
2022-11-20T13:38:14.133Z,5.80
2022-11-20T13:41:21.747Z,5.70
2022-11-20T13:43:49.514Z,5.70
2022-11-20T13:46:16.781Z,5.60
2022-11-20T13:48:45.422Z,5.70
2022-11-20T13:51:45.739Z,5.80
2022-11-20T13:54:26.862Z,5.90
2022-11-20T13:57:25.748Z,6.10
2022-11-20T13:59:59.155Z,6.20
2022-11-20T14:02:29.418Z,6.30
2022-11-20T14:05:00.539Z,6.40
2022-11-20T14:07:40.559Z,6.50
2022-11-20T14:10:20.111Z,6.60
2022-11-20T14:12:46.933Z,6.60
2022-11-20T14:15:31.719Z,6.60
2022-11-20T14:17:59.641Z,6.50
2022-11-20T14:20:32.393Z,6.40
2022-11-20T14:22:59.198Z,6.50
2022-11-20T14:25:31.958Z,6.50
2022-11-20T14:28:00.921Z,6.60
2022-11-20T14:30:47.577Z,6.70
2022-11-20T14:33:16.277Z,6.60
2022-11-20T14:35:49.310Z,6.50
2022-11-20T14:38:22.460Z,6.40
2022-11-20T14:40:49.304Z,6.20
2022-11-20T14:43:20.593Z,6.20
2022-11-20T14:45:56.412Z,6.10
2022-11-20T14:48:29.335Z,6.00
2022-11-20T14:50:56.229Z,6.00
2022-11-20T14:53:25.251Z,6.00
2022-11-20T14:56:01.621Z,6.00
2022-11-20T14:58:31.432Z,6.00
2022-11-20T15:01:02.573Z,5.90
2022-11-20T15:03:41.826Z,6.00
2022-11-20T15:06:13.050Z,5.90
2022-11-20T15:08:40.005Z,5.90
2022-11-20T15:11:18.324Z,5.90
2022-11-20T15:13:45.176Z,5.80
2022-11-20T15:16:21.305Z,5.80
2022-11-20T15:18:48.709Z,5.80
2022-11-20T15:21:19.081Z,5.80
2022-11-20T15:23:49.002Z,5.70
2022-11-20T15:26:27.609Z,5.70
2022-11-20T15:28:54.941Z,5.60
2022-11-20T15:31:25.321Z,5.60
2022-11-20T15:33:52.375Z,5.50
2022-11-20T15:36:19.089Z,5.50
2022-11-20T15:38:45.908Z,5.50
2022-11-20T15:41:39.318Z,5.50
2022-11-20T15:44:06.467Z,5.50
2022-11-20T15:46:39.407Z,5.50
2022-11-20T15:49:07.060Z,5.50
2022-11-20T15:51:36.402Z,5.50
2022-11-20T15:54:14.828Z,5.50
2022-11-20T15:56:41.802Z,5.50
2022-11-20T15:59:08.527Z,5.50
2022-11-20T16:01:35.749Z,5.50
2022-11-20T16:04:02.845Z,5.50
2022-11-20T16:06:29.554Z,5.40
2022-11-20T16:08:56.293Z,5.40
2022-11-20T16:11:23.120Z,5.40
2022-11-20T16:14:08.486Z,5.40
2022-11-20T16:16:38.570Z,5.30
2022-11-20T16:19:05.477Z,5.30
2022-11-20T16:21:32.511Z,5.30
2022-11-20T16:24:06.150Z,5.30
2022-11-20T16:26:33.644Z,5.30
2022-11-20T16:29:02.093Z,5.30
2022-11-20T16:31:29.312Z,5.30
2022-11-20T16:34:11.171Z,5.30
2022-11-20T16:36:42.463Z,5.30
2022-11-20T16:39:09.434Z,5.30
2022-11-20T16:41:36.651Z,5.30
2022-11-20T16:44:08.522Z,5.20
2022-11-20T16:46:35.570Z,5.20
2022-11-20T16:49:04.172Z,5.20
2022-11-20T16:51:34.513Z,5.20
2022-11-20T16:54:03.391Z,5.30
2022-11-20T16:56:30.354Z,5.30
2022-11-20T16:58:58.786Z,5.30
2022-11-20T17:01:26.049Z,5.30
2022-11-20T17:03:58.155Z,5.30
2022-11-20T17:06:34.075Z,5.30
2022-11-20T17:09:01.294Z,5.40
2022-11-20T17:11:28.322Z,5.40
2022-11-20T17:13:55.802Z,5.40
2022-11-20T17:16:24.477Z,5.40
2022-11-20T17:18:51.915Z,5.40
2022-11-20T17:21:20.622Z,5.40
2022-11-20T17:23:48.081Z,5.40
2022-11-20T17:26:21.819Z,5.40
2022-11-20T17:28:59.822Z,5.40
2022-11-20T17:31:28.349Z,5.50
2022-11-20T17:33:55.403Z,5.50
2022-11-20T17:36:22.472Z,5.50
2022-11-20T17:38:49.422Z,5.50
2022-11-20T17:41:18.684Z,5.50
2022-11-20T17:43:46.574Z,5.50
2022-11-20T17:46:21.355Z,5.50
2022-11-20T17:48:49.564Z,5.60
2022-11-20T17:51:18.848Z,5.60
2022-11-20T17:53:48.964Z,5.60
2022-11-20T17:56:34.649Z,5.60
2022-11-20T17:59:05.475Z,5.60
2022-11-20T18:01:33.680Z,5.70
2022-11-20T18:04:01.888Z,5.70
2022-11-20T18:06:29.917Z,5.70
2022-11-20T18:08:59.055Z,5.80
2022-11-20T18:11:28.589Z,5.80
2022-11-20T18:14:18.814Z,5.90
2022-11-20T18:16:55.408Z,6.00
2022-11-20T18:19:29.887Z,6.00
2022-11-20T18:22:01.350Z,6.00
2022-11-20T18:24:28.833Z,6.00
2022-11-20T18:26:56.145Z,6.10
2022-11-20T18:29:23.153Z,6.20
2022-11-20T18:31:50.378Z,6.20
2022-11-20T18:34:17.140Z,6.20
2022-11-20T18:36:45.439Z,6.30
2022-11-20T18:39:13.655Z,6.30
2022-11-20T18:41:59.537Z,6.30
2022-11-20T18:44:47.097Z,6.20
2022-11-20T18:47:18.118Z,6.30
2022-11-20T18:49:51.117Z,6.30
2022-11-20T18:52:23.331Z,6.40
2022-11-20T18:54:50.785Z,6.40
2022-11-20T18:57:22.627Z,6.40
2022-11-20T18:59:49.821Z,6.40
2022-11-20T19:02:20.131Z,6.40
2022-11-20T19:04:47.398Z,6.40
2022-11-20T19:07:15.161Z,6.40
2022-11-20T19:09:43.444Z,6.40
2022-11-20T19:12:12.189Z,6.40
2022-11-20T19:14:39.044Z,6.30
2022-11-20T19:17:07.023Z,6.30
2022-11-20T19:19:34.883Z,6.30
2022-11-20T19:22:01.863Z,6.40
2022-11-20T19:24:28.812Z,6.40
2022-11-20T19:26:56.218Z,6.40
2022-11-20T19:29:24.844Z,6.40
2022-11-20T19:31:51.988Z,6.40
2022-11-20T19:34:18.750Z,6.40
2022-11-20T19:36:45.798Z,6.40
2022-11-20T19:39:12.661Z,6.30
2022-11-20T19:41:41.247Z,6.40
2022-11-20T19:44:12.636Z,6.40
2022-11-20T19:46:40.285Z,6.40
2022-11-20T19:49:10.358Z,6.40
2022-11-20T19:51:38.974Z,6.40
2022-11-20T19:54:06.558Z,6.40
2022-11-20T19:56:34.243Z,6.50
2022-11-20T19:59:01.396Z,6.50
2022-11-20T20:01:30.124Z,6.50
2022-11-20T20:04:02.398Z,6.50
2022-11-20T20:06:30.243Z,6.40
2022-11-20T20:09:09.273Z,6.50
2022-11-20T20:11:37.075Z,6.50
2022-11-20T20:14:09.931Z,6.50
2022-11-20T20:16:36.706Z,6.50
2022-11-20T20:19:05.322Z,6.50
2022-11-20T20:21:33.682Z,6.60
2022-11-20T20:24:00.996Z,6.50
2022-11-20T20:26:31.273Z,6.50
2022-11-20T20:28:59.384Z,6.50
2022-11-20T20:31:28.301Z,6.50
2022-11-20T20:33:55.711Z,6.50
2022-11-20T20:36:23.653Z,6.40
2022-11-20T20:38:59.450Z,6.40
2022-11-20T20:41:26.313Z,6.40
2022-11-20T20:44:12.254Z,6.30
2022-11-20T20:46:39.753Z,6.30
2022-11-20T20:49:07.309Z,6.30
2022-11-20T20:51:35.017Z,6.20
2022-11-20T20:54:01.964Z,6.10
2022-11-20T20:56:28.828Z,6.10
2022-11-20T20:58:55.550Z,6.10
2022-11-20T21:01:22.938Z,6.10
2022-11-20T21:03:49.951Z,6.10
2022-11-20T21:06:16.797Z,6.00
2022-11-20T21:08:44.615Z,6.00
2022-11-20T21:11:14.373Z,5.90
2022-11-20T21:13:42.956Z,5.90
2022-11-20T21:16:11.694Z,6.00
2022-11-20T21:18:38.926Z,5.90
2022-11-20T21:21:26.036Z,5.90
2022-11-20T21:23:53.533Z,6.00
2022-11-20T21:26:21.206Z,5.90
2022-11-20T21:28:48.341Z,5.90
2022-11-20T21:31:19.359Z,5.90
2022-11-20T21:33:48.599Z,5.90
2022-11-20T21:36:21.618Z,5.90
2022-11-20T21:38:50.409Z,5.90
2022-11-20T21:41:17.543Z,5.90
2022-11-20T21:43:44.261Z,6.00
2022-11-20T21:46:14.017Z,6.00
2022-11-20T21:48:42.762Z,6.00
2022-11-20T21:51:10.735Z,6.00
2022-11-20T21:53:38.408Z,6.10
2022-11-20T21:56:06.384Z,6.10
2022-11-20T21:58:34.725Z,6.00
2022-11-20T22:01:11.648Z,6.10
2022-11-20T22:03:39.007Z,6.10
2022-11-20T22:06:06.908Z,6.10
2022-11-20T22:08:38.314Z,6.10
2022-11-20T22:11:07.703Z,6.10
2022-11-20T22:13:53.213Z,6.10
2022-11-20T22:16:20.036Z,6.20
2022-11-20T22:18:49.868Z,6.20
2022-11-20T22:21:19.236Z,6.10
2022-11-20T22:23:46.100Z,6.10
2022-11-20T22:26:15.639Z,6.10
2022-11-20T22:28:43.301Z,6.20
2022-11-20T22:31:11.093Z,6.20
2022-11-20T22:33:38.987Z,6.10
2022-11-20T22:36:10.462Z,6.00
2022-11-20T22:38:39.527Z,6.10
2022-11-20T22:41:09.483Z,6.10
2022-11-20T22:43:36.691Z,6.20
2022-11-20T22:46:05.345Z,6.20
2022-11-20T22:48:42.860Z,6.20
2022-11-20T22:51:12.966Z,6.20
2022-11-20T22:53:41.177Z,6.20
2022-11-20T22:56:09.491Z,6.20
2022-11-20T22:58:37.549Z,6.20
2022-11-20T23:01:08.651Z,6.30
2022-11-20T23:03:35.899Z,6.30
2022-11-20T23:06:02.842Z,6.30
2022-11-20T23:08:29.838Z,6.30
2022-11-20T23:11:00.561Z,6.40
2022-11-20T23:13:27.723Z,6.40
2022-11-20T23:15:55.570Z,6.50
2022-11-20T23:18:22.760Z,6.50
2022-11-20T23:20:49.502Z,6.50
2022-11-20T23:23:16.234Z,6.60
2022-11-20T23:25:43.043Z,6.60
2022-11-20T23:28:09.972Z,6.70
2022-11-20T23:30:36.885Z,6.80
2022-11-20T23:33:03.971Z,6.80
2022-11-20T23:35:30.735Z,6.60
2022-11-20T23:37:57.519Z,6.60
2022-11-20T23:40:24.328Z,6.60
2022-11-20T23:43:09.951Z,6.60
2022-11-20T23:45:39.608Z,6.60
2022-11-20T23:48:07.373Z,6.60
2022-11-20T23:50:35.226Z,6.60
2022-11-20T23:53:02.150Z,6.60
2022-11-20T23:55:29.082Z,6.60
2022-11-20T23:57:55.880Z,6.60
